Time;durP1;ratioP1;P1;durP2;ratioP2;P2;SDS_P1;SDS_P2;PMS_P1;PMS_P2;Temp;Humidity;BMP_temperature;BMP_pressure;BME280_temperature;BME280_humidity;BME280_pressure;Samples;Min_cycle;Max_cycle;Signal;HPM_P1;HPM_P2
2021/11/15 00:00:23;;;;;;;20.80;10.82;;;8.90;99.90;;;;;;1934991;72;21216;-77
2021/11/15 00:02:49;;;;;;;24.02;11.93;;;9.00;99.90;;;;;;1937443;72;21070;-78
2021/11/15 00:05:17;;;;;;;21.82;11.78;;;9.00;99.90;;;;;;1945373;73;21101;-77
2021/11/15 00:07:43;;;;;;;17.10;11.20;;;9.00;99.90;;;;;;1950414;72;21496;-77
2021/11/15 00:10:09;;;;;;;23.62;12.43;;;9.00;99.90;;;;;;1935010;73;21058;-76
2021/11/15 00:12:35;;;;;;;20.50;11.50;;;9.00;99.90;;;;;;1906552;74;21463;-77
2021/11/15 00:15:01;;;;;;;18.20;11.57;;;8.90;99.90;;;;;;1935720;72;21523;-76
2021/11/15 00:17:27;;;;;;;19.37;11.55;;;8.80;99.90;;;;;;1956433;73;21537;-77
2021/11/15 00:19:54;;;;;;;15.80;10.40;;;8.90;99.90;;;;;;1941830;74;21039;-76
2021/11/15 00:22:20;;;;;;;21.90;11.60;;;8.80;99.90;;;;;;1931490;74;21074;-77
2021/11/15 00:24:46;;;;;;;16.93;11.08;;;8.70;99.90;;;;;;1928385;74;21075;-76
2021/11/15 00:27:12;;;;;;;15.18;10.75;;;8.80;99.90;;;;;;1938176;73;21078;-75
2021/11/15 00:29:38;;;;;;;20.52;11.05;;;8.80;99.90;;;;;;1942221;72;21109;-75
2021/11/15 00:32:04;;;;;;;25.70;12.45;;;8.80;99.90;;;;;;1933914;73;21144;-76
2021/11/15 00:34:30;;;;;;;18.42;11.60;;;8.70;99.90;;;;;;1938707;72;21071;-77
2021/11/15 00:36:56;;;;;;;19.55;10.85;;;8.70;99.90;;;;;;1932569;74;21152;-75
2021/11/15 00:39:23;;;;;;;22.02;12.00;;;8.70;99.90;;;;;;1928800;72;21032;-77
2021/11/15 00:41:49;;;;;;;33.08;11.33;;;8.60;99.90;;;;;;1947859;73;21051;-77
2021/11/15 00:44:15;;;;;;;17.85;10.78;;;8.70;99.90;;;;;;1941345;73;21074;-76
2021/11/15 00:46:41;;;;;;;19.60;11.68;;;8.60;99.90;;;;;;1935536;73;21264;-75
2021/11/15 00:49:07;;;;;;;15.93;10.75;;;8.60;99.90;;;;;;1936244;73;21571;-76
2021/11/15 00:51:33;;;;;;;20.45;11.20;;;8.70;99.90;;;;;;1946987;73;21432;-76
2021/11/15 00:53:59;;;;;;;18.05;11.05;;;8.70;99.90;;;;;;1947249;73;21552;-76
2021/11/15 00:56:25;;;;;;;17.92;10.98;;;8.60;99.90;;;;;;1934699;73;21557;-78
2021/11/15 00:58:52;;;;;;;15.83;10.95;;;8.60;99.90;;;;;;1938344;73;21071;-76
2021/11/15 01:01:18;;;;;;;19.40;10.98;;;8.60;99.90;;;;;;1944848;73;21067;-77
2021/11/15 01:03:44;;;;;;;17.15;10.82;;;8.60;99.90;;;;;;1948456;72;21078;-77
2021/11/15 01:06:10;;;;;;;16.95;10.05;;;8.70;99.90;;;;;;1927884;73;21074;-77
2021/11/15 01:08:38;;;;;;;17.60;10.05;;;8.60;99.90;;;;;;1925105;72;21075;-76
2021/11/15 01:11:04;;;;;;;19.07;10.25;;;8.60;99.90;;;;;;1942104;72;21180;-75
2021/11/15 01:13:30;;;;;;;18.17;10.95;;;8.70;99.90;;;;;;1947631;72;21072;-75
2021/11/15 01:15:56;;;;;;;19.73;10.72;;;8.60;99.90;;;;;;1945879;73;21137;-76
2021/11/15 01:18:22;;;;;;;16.62;10.58;;;8.50;99.90;;;;;;1939781;73;21086;-75
2021/11/15 01:20:48;;;;;;;20.97;10.82;;;8.60;99.90;;;;;;1936824;73;21074;-76
2021/11/15 01:23:15;;;;;;;20.37;10.35;;;8.60;99.90;;;;;;1937370;72;21160;-76
2021/11/15 01:25:41;;;;;;;13.58;9.53;;;8.60;99.90;;;;;;1945019;73;21152;-76
2021/11/15 01:28:07;;;;;;;16.02;9.80;;;8.60;99.90;;;;;;1944611;72;21534;-76
2021/11/15 01:30:33;;;;;;;13.10;8.68;;;8.60;99.90;;;;;;1939576;72;21494;-76
2021/11/15 01:33:00;;;;;;;14.65;9.25;;;8.60;99.90;;;;;;1939615;73;21490;-76
2021/11/15 01:35:26;;;;;;;15.90;9.40;;;8.60;99.90;;;;;;1938953;74;21086;-76
2021/11/15 01:37:53;;;;;;;18.23;9.00;;;8.60;99.90;;;;;;1936230;73;21141;-76
2021/11/15 01:40:19;;;;;;;14.20;8.63;;;8.60;99.90;;;;;;1939681;73;21110;-77
2021/11/15 01:42:45;;;;;;;19.50;8.80;;;8.50;99.90;;;;;;1935389;74;21082;-77
2021/11/15 01:45:11;;;;;;;16.00;8.73;;;8.50;99.90;;;;;;1930428;73;21207;-77
2021/11/15 01:47:37;;;;;;;15.38;9.03;;;8.50;99.90;;;;;;1942777;72;21040;-76
2021/11/15 01:50:03;;;;;;;12.33;8.48;;;8.60;99.90;;;;;;1940139;73;21063;-77
2021/11/15 01:52:30;;;;;;;10.10;7.25;;;8.50;99.90;;;;;;1936140;73;21151;-76
2021/11/15 01:54:56;;;;;;;13.83;8.00;;;8.60;99.90;;;;;;1938845;73;21247;-77
2021/11/15 01:57:22;;;;;;;13.48;8.08;;;8.50;99.90;;;;;;1933795;74;21148;-77
2021/11/15 01:59:48;;;;;;;13.60;7.35;;;8.50;99.90;;;;;;1932908;73;21036;-78
2021/11/15 02:02:14;;;;;;;11.70;7.65;;;8.50;99.90;;;;;;1945357;73;21152;-76
2021/11/15 02:04:40;;;;;;;13.75;8.05;;;8.40;99.90;;;;;;1948888;72;21066;-78
2021/11/15 02:07:06;;;;;;;11.88;7.55;;;8.40;99.90;;;;;;1939429;73;21074;-76
2021/11/15 02:09:32;;;;;;;15.58;7.42;;;8.40;99.90;;;;;;1942601;73;21039;-78
2021/11/15 02:12:00;;;;;;;10.15;7.22;;;8.40;99.90;;;;;;1928038;74;21048;-78
2021/11/15 02:14:26;;;;;;;9.70;6.47;;;8.50;99.90;;;;;;1940568;74;21071;-77
2021/11/15 02:16:52;;;;;;;12.20;7.20;;;8.40;99.90;;;;;;1939271;74;21156;-78
2021/11/15 02:19:18;;;;;;;14.03;6.40;;;8.40;99.90;;;;;;1944634;73;21140;-78
2021/11/15 02:21:44;;;;;;;9.03;6.42;;;8.40;99.90;;;;;;1934851;72;21156;-76
2021/11/15 02:24:10;;;;;;;7.83;5.90;;;8.40;99.90;;;;;;1930837;73;21040;-77
2021/11/15 02:26:37;;;;;;;9.03;6.45;;;8.40;99.90;;;;;;1944677;72;21074;-76
2021/11/15 02:29:04;;;;;;;11.45;6.17;;;8.40;99.90;;;;;;1945649;72;21161;-78
2021/11/15 02:31:32;;;;;;;9.90;6.22;;;8.40;99.90;;;;;;1936291;72;21144;-78
2021/11/15 02:33:58;;;;;;;9.78;6.33;;;8.40;99.90;;;;;;1939237;73;21251;-75
2021/11/15 02:36:26;;;;;;;9.48;6.10;;;8.40;99.90;;;;;;1938961;73;21156;-76
2021/11/15 02:38:52;;;;;;;8.73;5.90;;;8.30;99.90;;;;;;1951798;72;21181;-76
2021/11/15 02:41:19;;;;;;;7.80;6.17;;;8.40;99.90;;;;;;1944031;73;21566;-77
2021/11/15 02:43:45;;;;;;;12.68;7.62;;;8.30;99.90;;;;;;1944086;74;21175;-76
2021/11/15 02:46:11;;;;;;;9.18;6.30;;;8.30;99.90;;;;;;1936822;72;21199;-77
2021/11/15 02:48:38;;;;;;;10.35;6.28;;;8.30;99.90;;;;;;1934502;72;21044;-77
2021/11/15 02:51:04;;;;;;;19.87;7.17;;;8.30;99.90;;;;;;1945994;73;21055;-77
2021/11/15 02:53:30;;;;;;;9.80;6.50;;;8.30;99.90;;;;;;1928959;73;21074;-77
2021/11/15 02:55:56;;;;;;;8.33;6.08;;;8.30;99.90;;;;;;1922361;73;21112;-78
2021/11/15 02:58:22;;;;;;;17.27;7.55;;;8.30;99.90;;;;;;1922567;73;21151;-77
2021/11/15 03:00:48;;;;;;;10.55;6.83;;;8.30;99.90;;;;;;1919907;73;21044;-78
2021/11/15 03:03:16;;;;;;;12.05;7.03;;;8.30;99.90;;;;;;1924725;73;21152;-76
2021/11/15 03:05:42;;;;;;;15.10;7.40;;;8.20;99.90;;;;;;1937122;72;21082;-76
2021/11/15 03:08:08;;;;;;;11.00;6.97;;;8.20;99.90;;;;;;1934178;73;21148;-76
2021/11/15 03:10:34;;;;;;;9.90;6.53;;;8.20;99.90;;;;;;1941832;73;21160;-77
2021/11/15 03:13:00;;;;;;;15.35;7.65;;;8.30;99.90;;;;;;1947115;72;21035;-77
2021/11/15 03:15:27;;;;;;;12.43;7.58;;;8.30;99.90;;;;;;1939728;73;21075;-78
2021/11/15 03:17:55;;;;;;;10.35;7.08;;;8.30;99.90;;;;;;1943941;74;21075;-77
2021/11/15 03:20:23;;;;;;;10.93;7.50;;;8.30;99.90;;;;;;1933626;73;21196;-77
2021/11/15 03:22:49;;;;;;;10.78;6.65;;;8.20;99.90;;;;;;1952137;72;21074;-78
2021/11/15 03:25:16;;;;;;;13.68;7.55;;;8.20;99.90;;;;;;1930213;73;21140;-77
2021/11/15 03:27:43;;;;;;;12.88;7.42;;;8.30;99.90;;;;;;1934192;72;21075;-78
2021/11/15 03:30:09;;;;;;;14.65;7.58;;;8.20;99.90;;;;;;1937540;73;21070;-77
2021/11/15 03:32:35;;;;;;;10.20;7.28;;;8.20;99.90;;;;;;1944318;72;21036;-77
2021/11/15 03:35:01;;;;;;;11.15;7.37;;;8.30;99.90;;;;;;1943340;73;21152;-77
2021/11/15 03:37:28;;;;;;;17.12;7.10;;;8.20;99.90;;;;;;1944975;73;21157;-78
2021/11/15 03:39:55;;;;;;;12.10;7.67;;;8.20;99.90;;;;;;1942248;73;21471;-78
2021/11/15 03:42:21;;;;;;;15.20;8.48;;;8.20;99.90;;;;;;1945017;72;21150;-77
2021/11/15 03:44:47;;;;;;;10.88;7.40;;;8.20;99.90;;;;;;1943987;72;21074;-77
2021/11/15 03:47:13;;;;;;;8.83;6.67;;;8.20;99.90;;;;;;1930558;73;21079;-77
2021/11/15 03:49:39;;;;;;;11.00;7.50;;;8.30;99.90;;;;;;1948342;73;21137;-77
2021/11/15 03:52:05;;;;;;;13.53;7.42;;;8.30;99.90;;;;;;1944380;73;21323;-78
2021/11/15 03:54:31;;;;;;;14.15;7.85;;;8.20;99.90;;;;;;1929842;73;21188;-77
2021/11/15 03:56:58;;;;;;;9.50;7.03;;;8.20;99.90;;;;;;1934462;73;21068;-77
2021/11/15 03:59:24;;;;;;;10.78;7.28;;;8.20;99.90;;;;;;1939117;74;21082;-78
2021/11/15 04:01:52;;;;;;;11.80;7.40;;;8.20;99.90;;;;;;1932167;73;21137;-77
2021/11/15 04:04:19;;;;;;;11.18;7.65;;;8.10;99.90;;;;;;1913560;73;21526;-75
2021/11/15 04:06:51;;;;;;;14.18;7.87;;;8.10;99.90;;;;;;1944349;72;21086;-76
2021/11/15 04:09:15;;;;;;;;;;;8.20;99.90;;;;;;1931703;73;21107;-76
2021/11/15 04:11:42;;;;;;;9.50;6.92;;;8.10;99.90;;;;;;1938927;72;20117;-76
2021/11/15 04:14:08;;;;;;;11.78;7.92;;;8.10;99.90;;;;;;1924372;73;21074;-76
2021/11/15 04:16:34;;;;;;;12.10;8.00;;;8.10;99.90;;;;;;1942531;73;21128;-75
2021/11/15 04:19:00;;;;;;;15.05;8.85;;;8.00;99.90;;;;;;1926770;73;21164;-76
2021/11/15 04:21:26;;;;;;;13.90;8.08;;;8.00;99.90;;;;;;1939612;73;21111;-75
2021/11/15 04:23:52;;;;;;;12.65;7.70;;;8.00;99.90;;;;;;1939432;73;21076;-76
2021/11/15 04:26:18;;;;;;;14.83;9.00;;;8.00;99.90;;;;;;1942829;73;21078;-76
2021/11/15 04:28:44;;;;;;;11.25;8.38;;;8.00;99.90;;;;;;1936674;73;21140;-76
2021/11/15 04:31:11;;;;;;;12.63;8.15;;;8.00;99.90;;;;;;1944422;73;21087;-77
2021/11/15 04:33:37;;;;;;;14.28;8.63;;;8.00;99.90;;;;;;1940963;73;21074;-76
2021/11/15 04:36:03;;;;;;;14.20;8.83;;;8.10;99.90;;;;;;1943925;74;21504;-76
2021/11/15 04:38:29;;;;;;;16.05;7.97;;;8.10;99.90;;;;;;1941813;72;21522;-76
2021/11/15 04:40:55;;;;;;;11.75;8.10;;;8.00;99.90;;;;;;1939295;72;21607;-76
2021/11/15 04:43:21;;;;;;;13.43;8.28;;;8.00;99.90;;;;;;1947428;73;21079;-76
2021/11/15 04:45:47;;;;;;;11.95;7.70;;;8.10;99.90;;;;;;1919932;74;21136;-76
2021/11/15 04:48:13;;;;;;;11.38;7.83;;;8.10;99.90;;;;;;1941769;73;21112;-75
2021/11/15 04:50:40;;;;;;;16.32;8.73;;;8.10;99.90;;;;;;1947516;73;21105;-75
2021/11/15 04:53:06;;;;;;;10.90;8.55;;;8.00;99.90;;;;;;1937993;74;21218;-75
2021/11/15 04:55:32;;;;;;;9.58;7.47;;;8.00;99.90;;;;;;1947198;73;21074;-76
2021/11/15 04:57:58;;;;;;;18.65;8.25;;;8.10;99.90;;;;;;1938985;74;21152;-76
2021/11/15 05:00:24;;;;;;;13.40;7.47;;;8.10;99.90;;;;;;1943987;72;21047;-76
2021/11/15 05:02:50;;;;;;;15.25;8.33;;;8.10;99.90;;;;;;1938911;74;21270;-76
2021/11/15 05:05:16;;;;;;;11.40;8.73;;;8.10;99.90;;;;;;1944016;72;21087;-76
2021/11/15 05:07:43;;;;;;;13.22;9.08;;;8.00;99.90;;;;;;1952207;72;21486;-76
2021/11/15 05:10:12;;;;;;;12.70;9.00;;;8.00;99.90;;;;;;1944018;72;21140;-76
2021/11/15 05:12:38;;;;;;;23.70;9.00;;;7.90;99.90;;;;;;1943938;74;21071;-77
2021/11/15 05:15:04;;;;;;;15.50;8.53;;;7.90;99.90;;;;;;1943041;73;21487;-77
2021/11/15 05:17:31;;;;;;;12.68;8.20;;;7.90;99.90;;;;;;1926000;73;21040;-76
2021/11/15 05:19:57;;;;;;;13.83;8.90;;;8.00;99.90;;;;;;1941434;73;21047;-76
2021/11/15 05:22:23;;;;;;;15.38;8.95;;;7.90;99.90;;;;;;1939821;73;21067;-75
2021/11/15 05:24:49;;;;;;;15.53;9.30;;;7.90;99.90;;;;;;1937428;73;21152;-75
2021/11/15 05:27:15;;;;;;;12.75;8.48;;;7.80;99.90;;;;;;1936597;73;21082;-77
2021/11/15 05:29:41;;;;;;;14.80;8.75;;;7.90;99.90;;;;;;1952382;72;21077;-76
2021/11/15 05:32:07;;;;;;;13.38;9.08;;;7.90;99.90;;;;;;1937447;73;21237;-76
2021/11/15 05:34:34;;;;;;;14.28;9.30;;;7.90;99.90;;;;;;1915303;72;21128;-76
2021/11/15 05:37:00;;;;;;;18.32;9.55;;;7.90;99.90;;;;;;1933809;73;21126;-76
2021/11/15 05:39:26;;;;;;;12.05;8.53;;;7.90;99.90;;;;;;1940032;73;21078;-77
2021/11/15 05:41:52;;;;;;;12.90;8.78;;;7.90;99.90;;;;;;1946011;73;21431;-76
2021/11/15 05:44:18;;;;;;;16.65;8.55;;;7.90;99.90;;;;;;1944759;72;21494;-76
2021/11/15 05:46:44;;;;;;;12.00;8.78;;;7.90;99.90;;;;;;1930843;74;21510;-75
2021/11/15 05:49:10;;;;;;;14.43;8.58;;;7.80;99.90;;;;;;1952418;72;21502;-78
2021/11/15 05:51:36;;;;;;;20.70;9.35;;;7.80;99.90;;;;;;1910306;74;21128;-74
2021/11/15 05:54:03;;;;;;;15.98;8.93;;;7.80;99.90;;;;;;1942865;73;21051;-75
2021/11/15 05:56:29;;;;;;;10.98;6.97;;;7.80;99.90;;;;;;1937713;72;21094;-76
2021/11/15 05:58:55;;;;;;;14.90;7.62;;;7.90;99.90;;;;;;1939136;72;21136;-74
2021/11/15 06:01:21;;;;;;;12.95;8.93;;;8.00;99.90;;;;;;1933381;74;21186;-76
2021/11/15 06:03:47;;;;;;;11.20;8.15;;;7.90;99.90;;;;;;1936851;72;21156;-74
2021/11/15 06:06:13;;;;;;;17.65;8.33;;;7.90;99.90;;;;;;1936599;73;21040;-75
2021/11/15 06:08:39;;;;;;;12.35;8.10;;;7.90;99.90;;;;;;1931606;73;21269;-75
2021/11/15 06:11:05;;;;;;;15.68;8.48;;;7.90;99.90;;;;;;1952452;72;21202;-75
2021/11/15 06:13:32;;;;;;;16.75;8.28;;;7.80;99.90;;;;;;1952657;73;21478;-75
2021/11/15 06:15:58;;;;;;;15.75;8.98;;;7.90;99.90;;;;;;1942304;73;21471;-75
2021/11/15 06:18:24;;;;;;;11.45;8.03;;;7.90;99.90;;;;;;1942150;73;21460;-74
2021/11/15 06:20:50;;;;;;;12.10;8.65;;;8.00;99.90;;;;;;1929443;73;21607;-75
2021/11/15 06:23:16;;;;;;;12.98;8.70;;;7.90;99.90;;;;;;1944720;73;21467;-76
2021/11/15 06:25:42;;;;;;;17.42;9.30;;;7.90;99.90;;;;;;1942546;72;21148;-75
2021/11/15 06:28:08;;;;;;;12.60;8.70;;;7.90;99.90;;;;;;1942148;73;21074;-75
2021/11/15 06:30:34;;;;;;;14.83;8.85;;;8.00;99.90;;;;;;1943254;73;21039;-74
2021/11/15 06:33:01;;;;;;;11.55;8.48;;;8.00;99.90;;;;;;1930563;73;21140;-76
2021/11/15 06:35:27;;;;;;;17.67;8.68;;;8.10;99.90;;;;;;1947198;73;21071;-76
2021/11/15 06:37:54;;;;;;;12.68;8.40;;;8.10;99.90;;;;;;1934870;73;21080;-76
2021/11/15 06:40:20;;;;;;;15.98;9.10;;;8.20;99.90;;;;;;1943510;72;21075;-75
2021/11/15 06:42:46;;;;;;;14.78;9.48;;;8.10;99.90;;;;;;1941960;73;21067;-78
2021/11/15 06:45:12;;;;;;;14.70;9.15;;;8.10;99.90;;;;;;1928578;73;21149;-76
2021/11/15 06:47:38;;;;;;;17.42;8.95;;;8.00;99.90;;;;;;1952444;72;21038;-80
2021/11/15 06:50:04;;;;;;;14.80;9.85;;;8.00;99.90;;;;;;1941195;73;21132;-76
2021/11/15 06:52:31;;;;;;;19.07;9.10;;;8.00;99.90;;;;;;1921985;74;21079;-79
2021/11/15 06:54:57;;;;;;;15.20;9.58;;;7.90;99.90;;;;;;1933666;72;21478;-76
2021/11/15 06:57:24;;;;;;;13.65;8.85;;;7.90;99.90;;;;;;1942193;73;21082;-79
2021/11/15 06:59:51;;;;;;;19.70;9.93;;;7.90;99.90;;;;;;1935298;73;21490;-77
2021/11/15 07:02:17;;;;;;;12.07;8.33;;;7.90;99.90;;;;;;1929872;73;21132;-74
2021/11/15 07:04:43;;;;;;;13.68;8.78;;;7.90;99.90;;;;;;1933850;73;21174;-74
2021/11/15 07:07:09;;;;;;;15.10;8.58;;;7.90;99.90;;;;;;1936826;73;21075;-74
2021/11/15 07:09:37;;;;;;;14.10;8.65;;;7.90;99.90;;;;;;1939136;72;21152;-78
2021/11/15 07:12:03;;;;;;;14.18;9.13;;;8.00;99.90;;;;;;1927090;72;21210;-76
2021/11/15 07:14:29;;;;;;;19.23;9.85;;;8.00;99.90;;;;;;1958889;73;21071;-81
2021/11/15 07:16:55;;;;;;;14.45;9.30;;;8.00;99.90;;;;;;1928171;73;21205;-77
2021/11/15 07:19:21;;;;;;;12.13;8.28;;;8.00;99.90;;;;;;1945941;73;21078;-77
2021/11/15 07:21:47;;;;;;;14.53;9.40;;;8.00;99.90;;;;;;1941401;73;21217;-76
2021/11/15 07:24:16;;;;;;;14.05;8.83;;;8.00;99.90;;;;;;1939284;72;21414;-76
2021/11/15 07:26:41;;;;;;;13.20;9.28;;;8.00;99.90;;;;;;1942038;73;21178;-78
2021/11/15 07:29:07;;;;;;;14.25;9.28;;;7.90;99.90;;;;;;1944914;72;21140;-77
2021/11/15 07:31:34;;;;;;;14.05;9.58;;;7.90;99.90;;;;;;1934709;74;21079;-77
2021/11/15 07:34:00;;;;;;;12.10;8.98;;;7.90;99.90;;;;;;1938232;74;21171;-76
2021/11/15 07:36:27;;;;;;;14.00;8.65;;;8.00;99.90;;;;;;1910139;73;21047;-75
2021/11/15 07:38:53;;;;;;;16.32;9.33;;;7.90;99.90;;;;;;1937403;73;21134;-77
2021/11/15 07:41:19;;;;;;;13.18;8.70;;;7.90;99.90;;;;;;1940504;72;21082;-78
2021/11/15 07:43:45;;;;;;;21.35;9.10;;;8.00;99.90;;;;;;1943906;74;21074;-80
2021/11/15 07:46:11;;;;;;;13.88;8.95;;;8.00;99.90;;;;;;1929384;72;21472;-79
2021/11/15 07:48:37;;;;;;;14.85;9.33;;;8.10;99.90;;;;;;1950779;73;21078;-79
2021/11/15 07:51:03;;;;;;;16.32;8.25;;;8.10;99.90;;;;;;1952727;72;21143;-79
2021/11/15 07:53:36;;;;;;;17.87;9.23;;;8.10;99.90;;;;;;1934759;72;21082;-79
2021/11/15 07:55:57;;;;;;;11.73;7.87;;;8.10;99.90;;;;;;1937139;72;21496;-79
2021/11/15 07:58:24;;;;;;;16.77;8.93;;;8.20;99.90;;;;;;1943870;74;21446;-79
2021/11/15 08:00:51;;;;;;;11.48;8.70;;;8.20;99.90;;;;;;1925070;72;21639;-80
2021/11/15 08:03:18;;;;;;;17.07;9.23;;;8.20;99.90;;;;;;1934622;72;21086;-81
2021/11/15 08:05:44;;;;;;;20.20;8.33;;;8.20;99.90;;;;;;1934242;73;21044;-80
2021/11/15 08:08:10;;;;;;;16.62;9.35;;;8.20;99.90;;;;;;1921409;72;21136;-79
2021/11/15 08:10:36;;;;;;;11.48;8.13;;;8.30;99.90;;;;;;1931558;73;21453;-80
2021/11/15 08:13:02;;;;;;;15.83;9.38;;;8.30;99.90;;;;;;1927531;73;21141;-80
2021/11/15 08:15:28;;;;;;;17.57;9.13;;;8.20;99.90;;;;;;1918715;73;21070;-79
2021/11/15 08:17:54;;;;;;;12.75;8.33;;;8.20;99.90;;;;;;1928632;72;21274;-78
2021/11/15 08:20:22;;;;;;;16.45;9.53;;;8.20;99.90;;;;;;1929025;73;21074;-77
2021/11/15 08:22:50;;;;;;;13.08;8.95;;;8.10;99.90;;;;;;1921805;73;21114;-79
2021/11/15 08:25:16;;;;;;;16.42;9.00;;;8.20;99.90;;;;;;1918104;73;21322;-77
2021/11/15 08:27:42;;;;;;;17.50;9.75;;;8.10;99.90;;;;;;1935479;73;21608;-78
2021/11/15 08:30:08;;;;;;;18.10;9.53;;;8.10;99.90;;;;;;1931577;73;21428;-79
2021/11/15 08:32:34;;;;;;;17.55;9.83;;;8.10;99.90;;;;;;1917296;73;21028;-78
2021/11/15 08:35:02;;;;;;;13.40;9.00;;;8.10;99.90;;;;;;1940212;72;21070;-79
2021/11/15 08:37:28;;;;;;;16.02;9.78;;;8.20;99.90;;;;;;1912331;73;21547;-77
2021/11/15 08:39:54;;;;;;;14.35;9.55;;;8.10;99.90;;;;;;1923206;73;21491;-76
2021/11/15 08:42:20;;;;;;;15.88;9.63;;;8.10;99.90;;;;;;1908298;73;21133;-76
2021/11/15 08:44:55;;;;;;;14.28;9.55;;;8.20;99.90;;;;;;1925369;73;21072;-76
2021/11/15 08:47:14;;;;;;;12.50;9.40;;;8.30;99.90;;;;;;1940926;73;21180;-76
2021/11/15 08:49:40;;;;;;;15.05;9.38;;;8.30;99.90;;;;;;1925986;72;21470;-76
2021/11/15 08:52:07;;;;;;;18.25;10.20;;;8.40;99.90;;;;;;1924218;73;21482;-76
2021/11/15 08:54:33;;;;;;;14.65;9.90;;;8.30;99.90;;;;;;1916663;72;21600;-76
2021/11/15 08:56:59;;;;;;;17.37;10.55;;;8.30;99.90;;;;;;1926373;73;21036;-76
2021/11/15 08:59:25;;;;;;;13.08;9.35;;;8.20;99.90;;;;;;1926145;72;21148;-76
2021/11/15 09:01:51;;;;;;;21.05;10.18;;;8.40;99.90;;;;;;1933049;73;21066;-76
2021/11/15 09:04:17;;;;;;;16.95;10.53;;;8.40;99.90;;;;;;1931739;73;21062;-76
2021/11/15 09:06:43;;;;;;;15.28;10.93;;;8.30;99.90;;;;;;1926108;72;21066;-77
2021/11/15 09:09:14;;;;;;;16.15;11.05;;;8.20;99.90;;;;;;1920949;73;21133;-76
2021/11/15 09:11:37;;;;;;;18.10;11.68;;;8.20;99.90;;;;;;1925494;72;21095;-76
2021/11/15 09:14:03;;;;;;;16.65;10.40;;;8.20;99.90;;;;;;1918002;74;21066;-76
2021/11/15 09:16:30;;;;;;;17.45;10.55;;;8.20;99.90;;;;;;1922529;72;21400;-77
2021/11/15 09:18:56;;;;;;;14.87;10.05;;;8.20;99.90;;;;;;1916134;73;21140;-76
2021/11/15 09:21:22;;;;;;;14.23;10.03;;;8.10;99.90;;;;;;1926012;73;21069;-76
2021/11/15 09:23:48;;;;;;;19.87;11.28;;;8.20;99.90;;;;;;1921056;73;21070;-76
2021/11/15 09:26:14;;;;;;;15.38;11.00;;;8.30;99.90;;;;;;1910177;73;21070;-75
2021/11/15 09:28:40;;;;;;;15.53;10.38;;;8.20;99.90;;;;;;1919519;73;21113;-74
2021/11/15 09:31:06;;;;;;;18.07;10.72;;;8.20;99.90;;;;;;1911317;73;21066;-76
2021/11/15 09:33:32;;;;;;;16.60;10.35;;;8.20;99.90;;;;;;1918364;73;21529;-76
2021/11/15 09:35:59;;;;;;;18.85;10.98;;;8.20;99.90;;;;;;1923856;73;21536;-79
2021/11/15 09:38:25;;;;;;;17.85;9.98;;;8.10;99.90;;;;;;1935314;74;21153;-77
2021/11/15 09:40:52;;;;;;;20.57;11.57;;;8.20;99.90;;;;;;1916847;73;21066;-74
2021/11/15 09:43:18;;;;;;;13.68;9.83;;;8.20;99.90;;;;;;1923242;73;21576;-77
2021/11/15 09:45:44;;;;;;;23.85;10.58;;;8.20;99.90;;;;;;1918934;73;21532;-77
2021/11/15 09:48:10;;;;;;;17.73;10.05;;;8.30;99.90;;;;;;1922927;73;21669;-77
2021/11/15 09:50:37;;;;;;;22.45;11.45;;;8.30;99.90;;;;;;1937201;73;21543;-76
2021/11/15 09:53:03;;;;;;;18.70;11.95;;;8.30;99.90;;;;;;1932404;73;21151;-76
2021/11/15 09:55:29;;;;;;;15.75;12.35;;;8.20;99.90;;;;;;1925646;73;21063;-76
2021/11/15 09:57:55;;;;;;;16.90;11.48;;;8.20;99.90;;;;;;1937573;72;21078;-77
2021/11/15 10:00:22;;;;;;;18.92;11.55;;;8.20;99.90;;;;;;1932371;73;21536;-76
2021/11/15 10:02:48;;;;;;;17.62;12.70;;;8.20;99.90;;;;;;1900278;73;22926;-76
2021/11/15 10:05:14;;;;;;;18.55;12.10;;;8.20;99.90;;;;;;1926209;73;21126;-76
2021/11/15 10:07:40;;;;;;;18.52;12.82;;;8.20;99.90;;;;;;1923155;72;21035;-75
2021/11/15 10:10:06;;;;;;;27.02;13.55;;;8.20;99.90;;;;;;1941912;72;21082;-75
2021/11/15 10:12:32;;;;;;;24.07;14.05;;;8.20;99.90;;;;;;1930888;73;21197;-76
2021/11/15 10:14:58;;;;;;;21.07;14.07;;;8.20;99.90;;;;;;1918784;73;21072;-75
2021/11/15 10:17:24;;;;;;;26.35;14.30;;;8.20;99.90;;;;;;1931595;73;21150;-75
2021/11/15 10:19:51;;;;;;;31.27;15.13;;;8.20;99.90;;;;;;1931601;73;21274;-76
2021/11/15 10:22:17;;;;;;;24.50;14.58;;;8.20;99.90;;;;;;1918813;72;21208;-76
2021/11/15 10:24:45;;;;;;;25.80;14.78;;;8.20;99.90;;;;;;1917547;73;21132;-76
2021/11/15 10:27:11;;;;;;;23.25;14.50;;;8.20;99.90;;;;;;1919739;73;21201;-76
2021/11/15 10:29:38;;;;;;;25.27;14.87;;;8.30;99.90;;;;;;1895560;73;21053;-75
2021/11/15 10:32:04;;;;;;;26.65;15.35;;;8.30;99.90;;;;;;1917914;72;21039;-75
2021/11/15 10:34:30;;;;;;;19.95;12.88;;;8.20;99.90;;;;;;1923908;73;21474;-76
2021/11/15 10:36:56;;;;;;;19.85;12.43;;;8.20;99.90;;;;;;1922744;74;21458;-76
2021/11/15 10:39:22;;;;;;;24.27;14.87;;;8.10;99.90;;;;;;1922180;73;21143;-75
2021/11/15 10:41:49;;;;;;;22.67;14.03;;;8.10;99.90;;;;;;1913234;73;21058;-76
2021/11/15 10:44:17;;;;;;;20.85;12.90;;;8.20;99.90;;;;;;1915347;73;21165;-75
2021/11/15 10:46:43;;;;;;;18.73;12.05;;;8.20;99.90;;;;;;1915951;73;21516;-77
2021/11/15 10:49:10;;;;;;;17.23;11.57;;;8.20;99.90;;;;;;1919034;73;21081;-76
2021/11/15 10:51:39;;;;;;;19.65;11.40;;;8.20;99.90;;;;;;1938592;73;21509;-77
2021/11/15 10:54:06;;;;;;;20.00;12.45;;;8.30;99.90;;;;;;1936950;72;21106;-78
2021/11/15 10:56:39;;;;;;;17.95;11.75;;;8.30;99.90;;;;;;1941812;72;21318;-76
2021/11/15 10:59:01;;;;;;;15.80;11.85;;;8.30;99.90;;;;;;1927197;73;21052;-77
2021/11/15 11:01:27;;;;;;;21.42;12.53;;;8.40;99.90;;;;;;1931416;73;21255;-76
2021/11/15 11:03:53;;;;;;;18.62;12.35;;;8.40;99.90;;;;;;1922069;73;21073;-78
2021/11/15 11:06:19;;;;;;;20.27;12.25;;;8.40;99.90;;;;;;1928428;73;21062;-77
2021/11/15 11:08:45;;;;;;;20.70;11.93;;;8.40;99.90;;;;;;1920588;72;21194;-78
2021/11/15 11:11:12;;;;;;;18.87;12.10;;;8.40;99.90;;;;;;1918561;73;21067;-77
2021/11/15 11:13:39;;;;;;;23.10;12.10;;;8.40;99.90;;;;;;1924120;72;21548;-77
2021/11/15 11:16:05;;;;;;;18.50;12.33;;;8.40;99.90;;;;;;1922790;72;21071;-78
2021/11/15 11:18:39;;;;;;;22.45;13.03;;;8.40;99.90;;;;;;1927230;72;21087;-77
2021/11/15 11:26:27;;;;;;;18.48;11.73;;;8.30;99.90;;;;;;1910932;72;21110;-77
2021/11/15 11:28:54;;;;;;;18.70;12.03;;;8.30;99.90;;;;;;1919303;73;21128;-78
2021/11/15 11:31:19;;;;;;;17.35;11.55;;;8.30;99.90;;;;;;1917923;73;21169;-77
2021/11/15 11:33:46;;;;;;;19.02;12.13;;;8.40;99.90;;;;;;1916156;73;22680;-78
2021/11/15 11:36:12;;;;;;;19.05;12.40;;;8.30;99.90;;;;;;1940578;72;21114;-79
2021/11/15 11:38:38;;;;;;;17.55;12.28;;;8.20;99.90;;;;;;1934769;73;21140;-79
2021/11/15 11:41:04;;;;;;;17.35;11.93;;;8.20;99.90;;;;;;1920906;73;21143;-77
2021/11/15 11:43:30;;;;;;;23.10;13.58;;;8.20;99.90;;;;;;1913473;73;21086;-77
2021/11/15 11:45:57;;;;;;;23.67;12.75;;;8.20;99.90;;;;;;1922671;73;21270;-78
2021/11/15 11:48:24;;;;;;;23.90;12.68;;;8.20;99.90;;;;;;1931211;72;21147;-77
2021/11/15 11:50:50;;;;;;;25.12;13.25;;;8.20;99.90;;;;;;1942406;72;21440;-78
2021/11/15 11:53:18;;;;;;;19.57;13.22;;;8.20;99.90;;;;;;1926558;73;21572;-77
2021/11/15 11:55:45;;;;;;;26.23;12.03;;;8.30;99.90;;;;;;1924266;72;21140;-77
2021/11/15 11:58:11;;;;;;;23.52;12.95;;;8.20;99.90;;;;;;1923901;73;21143;-78
2021/11/15 12:00:37;;;;;;;21.65;12.73;;;8.20;99.90;;;;;;1929345;73;21152;-76
2021/11/15 12:03:05;;;;;;;22.50;14.25;;;8.30;99.90;;;;;;1925005;73;21078;-78
2021/11/15 12:05:31;;;;;;;27.02;13.48;;;8.30;99.90;;;;;;1913852;73;21135;-79
2021/11/15 12:07:58;;;;;;;19.57;12.90;;;8.30;99.90;;;;;;1932129;72;21152;-77
2021/11/15 12:10:24;;;;;;;25.70;14.13;;;8.20;99.90;;;;;;1929992;73;21148;-77
2021/11/15 12:12:51;;;;;;;20.97;13.48;;;8.20;99.90;;;;;;1918378;72;21034;-79
2021/11/15 12:15:17;;;;;;;21.95;14.63;;;8.20;99.90;;;;;;1922427;73;21078;-77
2021/11/15 12:17:45;;;;;;;22.75;14.03;;;8.30;99.90;;;;;;1920186;73;21075;-77
2021/11/15 12:20:11;;;;;;;19.12;13.20;;;8.40;99.90;;;;;;1911623;73;21131;-76
2021/11/15 12:22:39;;;;;;;22.58;13.25;;;8.50;99.90;;;;;;1916779;73;21083;-77
2021/11/15 12:25:05;;;;;;;22.42;12.82;;;8.40;99.90;;;;;;1923642;74;21087;-76
2021/11/15 12:27:31;;;;;;;20.30;12.85;;;8.40;99.90;;;;;;1929837;74;21144;-76
2021/11/15 12:29:57;;;;;;;19.23;13.75;;;8.40;99.90;;;;;;1919909;73;21070;-76
2021/11/15 12:32:23;;;;;;;23.25;15.03;;;8.30;99.90;;;;;;1918218;73;21136;-76
2021/11/15 12:34:49;;;;;;;23.00;13.28;;;8.30;99.90;;;;;;1909772;73;21134;-77
2021/11/15 12:37:16;;;;;;;23.07;13.43;;;8.30;99.90;;;;;;1927497;73;21131;-76
2021/11/15 12:39:42;;;;;;;23.10;12.95;;;8.40;99.90;;;;;;1939345;72;21568;-78
2021/11/15 12:42:08;;;;;;;23.40;13.38;;;8.30;99.90;;;;;;1932876;72;21459;-77